FDX1543 SABE-SACO
Flight info
| Callsign | FDX1543 |
|---|---|
| Flight time | 1h 18m |
| Altitude | 34000 |
| Route | ATOVO4B ATOVO UW5 ASISA ASISA1Q |
| Aircraft | B738/M-SDE2E3FGHIRWXY/LB1 |
Departure
| Time | 2026-05-03 21:23 |
|---|---|
| Airport | Aeroparque Jorge Newbery (SABE) |
Arrival
| Time | 2026-05-03 22:41 |
|---|---|
| Airport | Ingeniero Aeronáutico Ambrosio L.V. Taravella International Airport (SACO) |
| Time | Latitude | Longitude | Altitude | Speed | Heading |
|---|---|---|---|---|---|
| 2026-05-03 20:31 | -34.56338 | -58.41137 | 31 ft | 0 kts | 214° |
| 2026-05-03 21:07 | -34.56362 | -58.41147 | 26 ft | 3 kts | 175° |
| 2026-05-03 21:07 | -34.56374 | -58.41138 | 29 ft | 3 kts | 145° |
| 2026-05-03 21:08 | -34.56410 | -58.41092 | 26 ft | 3 kts | 124° |
| 2026-05-03 21:08 | -34.56422 | -58.41068 | 28 ft | 3 kts | 124° |
| 2026-05-03 21:08 | -34.56435 | -58.41045 | 28 ft | 3 kts | 124° |
| 2026-05-03 21:09 | -34.56448 | -58.41023 | 29 ft | 3 kts | 124° |
| 2026-05-03 21:09 | -34.56460 | -58.41001 | 28 ft | 3 kts | 124° |
| 2026-05-03 21:09 | -34.56472 | -58.40979 | 28 ft | 3 kts | 124° |
| 2026-05-03 21:09 | -34.56484 | -58.40958 | 28 ft | 3 kts | 124° |
| 2026-05-03 21:10 | -34.56495 | -58.40937 | 26 ft | 3 kts | 124° |
| 2026-05-03 21:10 | -34.56506 | -58.40918 | 28 ft | 3 kts | 124° |
| 2026-05-03 21:10 | -34.56517 | -58.40898 | 29 ft | 3 kts | 119° |
| 2026-05-03 21:10 | -34.56517 | -58.40874 | 28 ft | 3 kts | 76° |
| 2026-05-03 21:11 | -34.56510 | -58.40850 | 30 ft | 0 kts | 68° |
| 2026-05-03 21:17 | -34.56509 | -58.40850 | 30 ft | 0 kts | 68° |
| 2026-05-03 21:18 | -34.56499 | -58.40820 | 28 ft | 5 kts | 66° |
| 2026-05-03 21:18 | -34.56489 | -58.40793 | 29 ft | 2 kts | 65° |
| 2026-05-03 21:18 | -34.56487 | -58.40789 | 28 ft | 0 kts | 65° |
| 2026-05-03 21:20 | -34.56486 | -58.40787 | 28 ft | 1 kts | 65° |
| 2026-05-03 21:21 | -34.56466 | -58.40736 | 26 ft | 7 kts | 65° |
| 2026-05-03 21:21 | -34.56432 | -58.40692 | 27 ft | 8 kts | 3° |
| 2026-05-03 21:21 | -34.56405 | -58.40713 | 24 ft | 0 kts | 308° |
| 2026-05-03 21:22 | -34.56405 | -58.40714 | 24 ft | 2 kts | 308° |
| 2026-05-03 21:22 | -34.56283 | -58.40930 | 30 ft | 64 kts | 304° |
| 2026-05-03 21:22 | -34.55920 | -58.41585 | 23 ft | 121 kts | 304° |
| 2026-05-03 21:23 | -34.55354 | -58.42579 | 131 ft | 159 kts | 307° |
| 2026-05-03 21:23 | -34.54561 | -58.43562 | 572 ft | 174 kts | 326° |
| 2026-05-03 21:23 | -34.53738 | -58.44606 | 1414 ft | 167 kts | 305° |
| 2026-05-03 21:23 | -34.52972 | -58.45662 | 2033 ft | 175 kts | 336° |
| 2026-05-03 21:24 | -34.51689 | -58.45781 | 2283 ft | 200 kts | 9° |
| 2026-05-03 21:24 | -34.50306 | -58.45184 | 2528 ft | 222 kts | 27° |
| 2026-05-03 21:24 | -34.48922 | -58.44157 | 2761 ft | 242 kts | 28° |
| 2026-05-03 21:24 | -34.47468 | -58.43043 | 3316 ft | 252 kts | 29° |
| 2026-05-03 21:25 | -34.45970 | -58.41886 | 3920 ft | 258 kts | 29° |
| 2026-05-03 21:25 | -34.44442 | -58.40706 | 4558 ft | 263 kts | 28° |
| 2026-05-03 21:25 | -34.42883 | -58.39504 | 5148 ft | 268 kts | 28° |
| 2026-05-03 21:25 | -34.41161 | -58.38708 | 5680 ft | 266 kts | 359° |
| 2026-05-03 21:26 | -34.39414 | -58.39214 | 6309 ft | 259 kts | 327° |
| 2026-05-03 21:26 | -34.38076 | -58.40604 | 6887 ft | 258 kts | 308° |
| 2026-05-03 21:26 | -34.37119 | -58.42473 | 7488 ft | 259 kts | 297° |
| 2026-05-03 21:26 | -34.36302 | -58.44388 | 8061 ft | 260 kts | 296° |
| 2026-05-03 21:27 | -34.35487 | -58.46349 | 8651 ft | 262 kts | 296° |
| 2026-05-03 21:27 | -34.34667 | -58.48326 | 9224 ft | 264 kts | 296° |
| 2026-05-03 21:27 | -34.33836 | -58.50318 | 9747 ft | 267 kts | 296° |
| 2026-05-03 21:27 | -34.32995 | -58.52326 | 10261 ft | 269 kts | 296° |
| 2026-05-03 21:28 | -34.32120 | -58.54405 | 10392 ft | 286 kts | 296° |
| 2026-05-03 21:28 | -34.31194 | -58.56599 | 10499 ft | 301 kts | 296° |
| 2026-05-03 21:28 | -34.30216 | -58.58906 | 10599 ft | 315 kts | 296° |
| 2026-05-03 21:28 | -34.29194 | -58.61310 | 10753 ft | 326 kts | 296° |
| 2026-05-03 21:29 | -34.28162 | -58.63732 | 11084 ft | 330 kts | 296° |
| 2026-05-03 21:29 | -34.27110 | -58.66199 | 11499 ft | 331 kts | 296° |
| 2026-05-03 21:29 | -34.26052 | -58.68676 | 11897 ft | 332 kts | 296° |
| 2026-05-03 21:29 | -34.24988 | -58.71167 | 12255 ft | 335 kts | 296° |
| 2026-05-03 21:30 | -34.24265 | -58.72858 | 12496 ft | 336 kts | 296° |
| 2026-05-03 21:30 | -34.22836 | -58.76197 | 12972 ft | 339 kts | 295° |
| 2026-05-03 21:30 | -34.21750 | -58.78734 | 13313 ft | 341 kts | 295° |
| 2026-05-03 21:30 | -34.20656 | -58.81287 | 13645 ft | 343 kts | 295° |
| 2026-05-03 21:31 | -34.19557 | -58.83850 | 13969 ft | 345 kts | 295° |
| 2026-05-03 21:31 | -34.18450 | -58.86429 | 14265 ft | 346 kts | 295° |
| 2026-05-03 21:31 | -34.17339 | -58.89016 | 14536 ft | 348 kts | 295° |
| 2026-05-03 21:31 | -34.16222 | -58.91616 | 14810 ft | 350 kts | 295° |
| 2026-05-03 21:32 | -34.15478 | -58.93347 | 15013 ft | 350 kts | 295° |
| 2026-05-03 21:32 | -34.13974 | -58.96842 | 15393 ft | 352 kts | 295° |
| 2026-05-03 21:32 | -34.12858 | -58.99434 | 15653 ft | 353 kts | 295° |
| 2026-05-03 21:32 | -34.11758 | -59.01987 | 15924 ft | 354 kts | 295° |
| 2026-05-03 21:33 | -34.10626 | -59.04613 | 16189 ft | 355 kts | 295° |
| 2026-05-03 21:33 | -34.09486 | -59.07258 | 16450 ft | 356 kts | 295° |
| 2026-05-03 21:33 | -34.08341 | -59.09909 | 16703 ft | 357 kts | 295° |
| 2026-05-03 21:33 | -34.07188 | -59.12573 | 16941 ft | 358 kts | 295° |
| 2026-05-03 21:34 | -34.05974 | -59.15208 | 17157 ft | 362 kts | 300° |
| 2026-05-03 21:34 | -34.04448 | -59.17608 | 17379 ft | 366 kts | 306° |
| 2026-05-03 21:34 | -34.02813 | -59.19941 | 17565 ft | 368 kts | 306° |
| 2026-05-03 21:34 | -34.01151 | -59.22297 | 17761 ft | 370 kts | 306° |
| 2026-05-03 21:35 | -33.99488 | -59.24657 | 17984 ft | 371 kts | 306° |
| 2026-05-03 21:35 | -33.97808 | -59.27053 | 18380 ft | 377 kts | 306° |
| 2026-05-03 21:35 | -33.96142 | -59.29436 | 18996 ft | 376 kts | 306° |
| 2026-05-03 21:35 | -33.94460 | -59.31846 | 19592 ft | 377 kts | 306° |
| 2026-05-03 21:36 | -33.92768 | -59.34273 | 20142 ft | 379 kts | 306° |
| 2026-05-03 21:36 | -33.91068 | -59.36713 | 20669 ft | 382 kts | 306° |
| 2026-05-03 21:36 | -33.89354 | -59.39172 | 21171 ft | 385 kts | 306° |
| 2026-05-03 21:36 | -33.87627 | -59.41649 | 21671 ft | 388 kts | 305° |
| 2026-05-03 21:37 | -33.85882 | -59.44151 | 22119 ft | 392 kts | 305° |
| 2026-05-03 21:37 | -33.84123 | -59.46671 | 22613 ft | 394 kts | 305° |
| 2026-05-03 21:37 | -33.82353 | -59.49203 | 23094 ft | 397 kts | 305° |
| 2026-05-03 21:37 | -33.80573 | -59.51749 | 23566 ft | 399 kts | 305° |
| 2026-05-03 21:38 | -33.78777 | -59.54316 | 23964 ft | 402 kts | 305° |
| 2026-05-03 21:38 | -33.76973 | -59.56892 | 24361 ft | 404 kts | 305° |
| 2026-05-03 21:38 | -33.75180 | -59.59453 | 24748 ft | 406 kts | 305° |
| 2026-05-03 21:38 | -33.73949 | -59.61210 | 25015 ft | 407 kts | 305° |
| 2026-05-03 21:39 | -33.71528 | -59.64659 | 25558 ft | 409 kts | 305° |
| 2026-05-03 21:39 | -33.69684 | -59.67284 | 25857 ft | 413 kts | 305° |
| 2026-05-03 21:39 | -33.67820 | -59.69932 | 26186 ft | 416 kts | 305° |
| 2026-05-03 21:39 | -33.65945 | -59.72589 | 26549 ft | 418 kts | 305° |
| 2026-05-03 21:40 | -33.64072 | -59.75241 | 26917 ft | 420 kts | 304° |
| 2026-05-03 21:40 | -33.62180 | -59.77918 | 27264 ft | 422 kts | 304° |
| 2026-05-03 21:40 | -33.60273 | -59.80616 | 27598 ft | 424 kts | 304° |
| 2026-05-03 21:40 | -33.58362 | -59.83320 | 27916 ft | 427 kts | 304° |
| 2026-05-03 21:41 | -33.56462 | -59.86007 | 28247 ft | 429 kts | 304° |
| 2026-05-03 21:41 | -33.54530 | -59.88738 | 28538 ft | 431 kts | 304° |
| 2026-05-03 21:41 | -33.52586 | -59.91483 | 28899 ft | 432 kts | 304° |
| 2026-05-03 21:41 | -33.50643 | -59.94222 | 29386 ft | 430 kts | 304° |
| 2026-05-03 21:42 | -33.48713 | -59.96939 | 29910 ft | 427 kts | 304° |
| 2026-05-03 21:42 | -33.46793 | -59.99641 | 30344 ft | 425 kts | 304° |
| 2026-05-03 21:42 | -33.44920 | -60.02278 | 30693 ft | 425 kts | 304° |
| 2026-05-03 21:42 | -33.43005 | -60.04973 | 31026 ft | 425 kts | 304° |
| 2026-05-03 21:43 | -33.41092 | -60.07664 | 31391 ft | 424 kts | 303° |
| 2026-05-03 21:43 | -33.39182 | -60.10346 | 31771 ft | 422 kts | 303° |
| 2026-05-03 21:43 | -33.37282 | -60.13014 | 32098 ft | 422 kts | 303° |
| 2026-05-03 21:43 | -33.35373 | -60.15693 | 32380 ft | 423 kts | 303° |
| 2026-05-03 21:44 | -33.33468 | -60.18365 | 32722 ft | 421 kts | 303° |
| 2026-05-03 21:44 | -33.31575 | -60.21014 | 33176 ft | 418 kts | 303° |
| 2026-05-03 21:44 | -33.30325 | -60.22762 | 33438 ft | 417 kts | 303° |
| 2026-05-03 21:44 | -33.27810 | -60.26281 | 33841 ft | 417 kts | 303° |
| 2026-05-03 21:45 | -33.25951 | -60.28881 | 34055 ft | 418 kts | 303° |
| 2026-05-03 21:45 | -33.24049 | -60.31543 | 34041 ft | 424 kts | 303° |
| 2026-05-03 21:45 | -33.20179 | -60.36952 | 34035 ft | 432 kts | 303° |
| 2026-05-03 21:46 | -33.16272 | -60.42387 | 34037 ft | 430 kts | 303° |
| 2026-05-03 21:46 | -33.12380 | -60.47795 | 34036 ft | 428 kts | 303° |
| 2026-05-03 21:47 | -33.08506 | -60.53174 | 34033 ft | 427 kts | 303° |
| 2026-05-03 21:47 | -33.04642 | -60.58535 | 34043 ft | 426 kts | 303° |
| 2026-05-03 21:48 | -33.00811 | -60.63843 | 34036 ft | 425 kts | 303° |
| 2026-05-03 21:48 | -32.96968 | -60.69161 | 34051 ft | 425 kts | 303° |
| 2026-05-03 21:49 | -32.93109 | -60.74495 | 34048 ft | 425 kts | 303° |
| 2026-05-03 21:49 | -32.89470 | -60.79985 | 34042 ft | 417 kts | 294° |
| 2026-05-03 21:50 | -32.86552 | -60.85946 | 34050 ft | 417 kts | 293° |
| 2026-05-03 21:50 | -32.83667 | -60.91883 | 34046 ft | 418 kts | 294° |
| 2026-05-03 21:51 | -32.80732 | -60.97863 | 34030 ft | 419 kts | 294° |
| 2026-05-03 21:51 | -32.77812 | -61.03770 | 34031 ft | 420 kts | 294° |
| 2026-05-03 21:52 | -32.74849 | -61.09745 | 34023 ft | 420 kts | 294° |
| 2026-05-03 21:52 | -32.71884 | -61.15714 | 34019 ft | 419 kts | 294° |
| 2026-05-03 21:53 | -32.68922 | -61.21669 | 34021 ft | 419 kts | 294° |
| 2026-05-03 21:53 | -32.66458 | -61.26614 | 34019 ft | 418 kts | 294° |
| 2026-05-03 21:54 | -32.63013 | -61.33522 | 34025 ft | 418 kts | 294° |
| 2026-05-03 21:54 | -32.60048 | -61.39454 | 34024 ft | 418 kts | 294° |
| 2026-05-03 21:55 | -32.57582 | -61.44380 | 34024 ft | 418 kts | 294° |
| 2026-05-03 21:55 | -32.54620 | -61.50290 | 34013 ft | 417 kts | 294° |
| 2026-05-03 21:56 | -32.51174 | -61.57155 | 34021 ft | 417 kts | 294° |
| 2026-05-03 21:56 | -32.48210 | -61.63050 | 34021 ft | 416 kts | 294° |
| 2026-05-03 21:57 | -32.45726 | -61.67983 | 34022 ft | 416 kts | 294° |
| 2026-05-03 21:57 | -32.42778 | -61.73829 | 34019 ft | 417 kts | 294° |
| 2026-05-03 21:58 | -32.39803 | -61.79720 | 34021 ft | 417 kts | 294° |
| 2026-05-03 21:58 | -32.36832 | -61.85597 | 34014 ft | 416 kts | 295° |
| 2026-05-03 21:59 | -32.33858 | -61.91466 | 34022 ft | 416 kts | 295° |
| 2026-05-03 21:59 | -32.30873 | -61.97330 | 34021 ft | 416 kts | 295° |
| 2026-05-03 22:00 | -32.27941 | -62.03077 | 34017 ft | 416 kts | 295° |
| 2026-05-03 22:00 | -32.24951 | -62.08933 | 34019 ft | 416 kts | 295° |
| 2026-05-03 22:01 | -32.23451 | -62.11875 | 33615 ft | 425 kts | 295° |
| 2026-05-03 22:01 | -32.21920 | -62.14876 | 33161 ft | 423 kts | 295° |
| 2026-05-03 22:01 | -32.20408 | -62.17826 | 32680 ft | 418 kts | 295° |
| 2026-05-03 22:01 | -32.18914 | -62.20737 | 32269 ft | 412 kts | 295° |
| 2026-05-03 22:02 | -32.17438 | -62.23612 | 31841 ft | 407 kts | 295° |
| 2026-05-03 22:02 | -32.15984 | -62.26445 | 31439 ft | 402 kts | 295° |
| 2026-05-03 22:02 | -32.14544 | -62.29251 | 31036 ft | 397 kts | 295° |
| 2026-05-03 22:02 | -32.13122 | -62.32020 | 30642 ft | 393 kts | 295° |
| 2026-05-03 22:03 | -32.11713 | -62.34764 | 30255 ft | 389 kts | 295° |
| 2026-05-03 22:03 | -32.10317 | -62.37480 | 29834 ft | 385 kts | 295° |
| 2026-05-03 22:03 | -32.08935 | -62.40168 | 29389 ft | 381 kts | 295° |
| 2026-05-03 22:03 | -32.07587 | -62.42786 | 28992 ft | 376 kts | 295° |
| 2026-05-03 22:04 | -32.06238 | -62.45405 | 28571 ft | 372 kts | 295° |
| 2026-05-03 22:04 | -32.04901 | -62.47996 | 28203 ft | 367 kts | 295° |
| 2026-05-03 22:04 | -32.03584 | -62.50551 | 27798 ft | 363 kts | 295° |
| 2026-05-03 22:04 | -32.02280 | -62.53078 | 27424 ft | 359 kts | 295° |
| 2026-05-03 22:05 | -32.00987 | -62.55581 | 27039 ft | 356 kts | 295° |
| 2026-05-03 22:05 | -31.99713 | -62.58048 | 26674 ft | 352 kts | 295° |
| 2026-05-03 22:05 | -31.98444 | -62.60502 | 26307 ft | 349 kts | 295° |
| 2026-05-03 22:05 | -31.97187 | -62.62930 | 25944 ft | 346 kts | 295° |
| 2026-05-03 22:06 | -31.95940 | -62.65339 | 25577 ft | 343 kts | 295° |
| 2026-05-03 22:06 | -31.94702 | -62.67730 | 25219 ft | 341 kts | 295° |
| 2026-05-03 22:06 | -31.93472 | -62.70102 | 24860 ft | 338 kts | 295° |
| 2026-05-03 22:06 | -31.92264 | -62.72432 | 24509 ft | 336 kts | 295° |
| 2026-05-03 22:07 | -31.91050 | -62.74771 | 24162 ft | 334 kts | 295° |
| 2026-05-03 22:07 | -31.89839 | -62.77102 | 23771 ft | 333 kts | 295° |
| 2026-05-03 22:07 | -31.88634 | -62.79421 | 23391 ft | 331 kts | 295° |
| 2026-05-03 22:07 | -31.87436 | -62.81725 | 22997 ft | 329 kts | 296° |
| 2026-05-03 22:08 | -31.86244 | -62.84016 | 22633 ft | 327 kts | 296° |
| 2026-05-03 22:08 | -31.85064 | -62.86283 | 22275 ft | 324 kts | 296° |
| 2026-05-03 22:08 | -31.83889 | -62.88536 | 21918 ft | 322 kts | 296° |
| 2026-05-03 22:08 | -31.82771 | -62.90773 | 21582 ft | 318 kts | 293° |
| 2026-05-03 22:09 | -31.81726 | -62.93015 | 21244 ft | 315 kts | 294° |
| 2026-05-03 22:09 | -31.80397 | -62.95081 | 20875 ft | 324 kts | 314° |
| 2026-05-03 22:09 | -31.78425 | -62.96425 | 20557 ft | 336 kts | 335° |
| 2026-05-03 22:10 | -31.73911 | -62.97708 | 20012 ft | 333 kts | 342° |
| 2026-05-03 22:10 | -31.71655 | -62.98244 | 19815 ft | 328 kts | 342° |
| 2026-05-03 22:10 | -31.69434 | -62.98760 | 19617 ft | 323 kts | 342° |
| 2026-05-03 22:10 | -31.67246 | -62.99262 | 19499 ft | 318 kts | 342° |
| 2026-05-03 22:11 | -31.65085 | -62.99754 | 19417 ft | 316 kts | 342° |
| 2026-05-03 22:11 | -31.62952 | -63.00245 | 19297 ft | 331 kts | 342° |
| 2026-05-03 22:11 | -31.60631 | -63.00800 | 19085 ft | 345 kts | 342° |
| 2026-05-03 22:11 | -31.58274 | -63.01372 | 18855 ft | 346 kts | 342° |
| 2026-05-03 22:12 | -31.55923 | -63.01945 | 18623 ft | 344 kts | 342° |
| 2026-05-03 22:12 | -31.53589 | -63.02516 | 18395 ft | 341 kts | 342° |
| 2026-05-03 22:12 | -31.51273 | -63.03085 | 18147 ft | 339 kts | 342° |
| 2026-05-03 22:12 | -31.48967 | -63.03655 | 17881 ft | 337 kts | 342° |
| 2026-05-03 22:13 | -31.46670 | -63.04231 | 17514 ft | 339 kts | 342° |
| 2026-05-03 22:13 | -31.44364 | -63.04820 | 17141 ft | 341 kts | 342° |
| 2026-05-03 22:13 | -31.42076 | -63.05417 | 16779 ft | 342 kts | 342° |
| 2026-05-03 22:13 | -31.39757 | -63.06035 | 16413 ft | 341 kts | 342° |
| 2026-05-03 22:14 | -31.37451 | -63.06661 | 16046 ft | 339 kts | 342° |
| 2026-05-03 22:14 | -31.35163 | -63.07293 | 15688 ft | 337 kts | 342° |
| 2026-05-03 22:14 | -31.32889 | -63.07933 | 15332 ft | 335 kts | 342° |
| 2026-05-03 22:14 | -31.30627 | -63.08581 | 14984 ft | 334 kts | 342° |
| 2026-05-03 22:15 | -31.28384 | -63.09236 | 14629 ft | 332 kts | 342° |
| 2026-05-03 22:15 | -31.26151 | -63.09898 | 14283 ft | 330 kts | 342° |
| 2026-05-03 22:15 | -31.23930 | -63.10567 | 13943 ft | 329 kts | 342° |
| 2026-05-03 22:15 | -31.21944 | -63.11173 | 13612 ft | 327 kts | 342° |
| 2026-05-03 22:16 | -31.19777 | -63.11836 | 13239 ft | 326 kts | 342° |
| 2026-05-03 22:16 | -31.17782 | -63.12450 | 12899 ft | 324 kts | 342° |
| 2026-05-03 22:16 | -31.15606 | -63.13126 | 12521 ft | 323 kts | 342° |
| 2026-05-03 22:16 | -31.13439 | -63.13801 | 12163 ft | 321 kts | 342° |
| 2026-05-03 22:17 | -31.11306 | -63.14467 | 12035 ft | 312 kts | 342° |
| 2026-05-03 22:17 | -31.09337 | -63.15380 | 12003 ft | 301 kts | 321° |
| 2026-05-03 22:17 | -31.07877 | -63.17094 | 12035 ft | 299 kts | 308° |
| 2026-05-03 22:17 | -31.06547 | -63.18967 | 12025 ft | 301 kts | 307° |
| 2026-05-03 22:18 | -31.05222 | -63.20846 | 12016 ft | 300 kts | 307° |
| 2026-05-03 22:18 | -31.03903 | -63.22722 | 12013 ft | 299 kts | 307° |
| 2026-05-03 22:18 | -31.02588 | -63.24594 | 12015 ft | 298 kts | 307° |
| 2026-05-03 22:18 | -31.01278 | -63.26459 | 12014 ft | 297 kts | 307° |
| 2026-05-03 22:19 | -30.99990 | -63.28294 | 12013 ft | 297 kts | 307° |
| 2026-05-03 22:19 | -30.98683 | -63.30154 | 12018 ft | 297 kts | 307° |
| 2026-05-03 22:19 | -30.97373 | -63.32021 | 12021 ft | 297 kts | 307° |
| 2026-05-03 22:19 | -30.96063 | -63.33885 | 12016 ft | 298 kts | 307° |
| 2026-05-03 22:20 | -30.94749 | -63.35758 | 12016 ft | 299 kts | 307° |
| 2026-05-03 22:20 | -30.93433 | -63.37630 | 12018 ft | 299 kts | 307° |
| 2026-05-03 22:20 | -30.92115 | -63.39507 | 12019 ft | 300 kts | 307° |
| 2026-05-03 22:20 | -30.90879 | -63.41455 | 11973 ft | 299 kts | 294° |
| 2026-05-03 22:21 | -30.90379 | -63.43778 | 11731 ft | 297 kts | 273° |
| 2026-05-03 22:21 | -30.90256 | -63.46175 | 11500 ft | 297 kts | 272° |
| 2026-05-03 22:21 | -30.90142 | -63.48572 | 11267 ft | 295 kts | 272° |
| 2026-05-03 22:21 | -30.90033 | -63.50934 | 11080 ft | 291 kts | 272° |
| 2026-05-03 22:22 | -30.89928 | -63.53280 | 11048 ft | 295 kts | 272° |
| 2026-05-03 22:22 | -30.89824 | -63.55645 | 11014 ft | 289 kts | 272° |
| 2026-05-03 22:22 | -30.89724 | -63.57953 | 11005 ft | 282 kts | 272° |
| 2026-05-03 22:22 | -30.89627 | -63.60229 | 11017 ft | 282 kts | 272° |
| 2026-05-03 22:23 | -30.89528 | -63.62517 | 11021 ft | 284 kts | 272° |
| 2026-05-03 22:23 | -30.89428 | -63.64823 | 11017 ft | 286 kts | 272° |
| 2026-05-03 22:23 | -30.89326 | -63.67146 | 11027 ft | 288 kts | 272° |
| 2026-05-03 22:23 | -30.89223 | -63.69478 | 11023 ft | 289 kts | 272° |
| 2026-05-03 22:24 | -30.89119 | -63.71810 | 11019 ft | 287 kts | 272° |
| 2026-05-03 22:24 | -30.89016 | -63.74127 | 11014 ft | 285 kts | 272° |
| 2026-05-03 22:24 | -30.88913 | -63.76417 | 11010 ft | 282 kts | 272° |
| 2026-05-03 22:24 | -30.88812 | -63.78689 | 11005 ft | 282 kts | 272° |
| 2026-05-03 22:25 | -30.88710 | -63.80990 | 11014 ft | 286 kts | 272° |
| 2026-05-03 22:25 | -30.88605 | -63.83269 | 11017 ft | 285 kts | 272° |
| 2026-05-03 22:25 | -30.88495 | -63.85568 | 11008 ft | 285 kts | 272° |
| 2026-05-03 22:25 | -30.88386 | -63.87869 | 11015 ft | 284 kts | 272° |
| 2026-05-03 22:26 | -30.88273 | -63.90164 | 11009 ft | 285 kts | 272° |
| 2026-05-03 22:26 | -30.88560 | -63.92454 | 10738 ft | 291 kts | 245° |
| 2026-05-03 22:26 | -30.89841 | -63.94263 | 10519 ft | 296 kts | 216° |
| 2026-05-03 22:26 | -30.91758 | -63.95165 | 10328 ft | 301 kts | 196° |
| 2026-05-03 22:27 | -30.93809 | -63.95665 | 10119 ft | 301 kts | 194° |
| 2026-05-03 22:27 | -30.95853 | -63.96090 | 10017 ft | 295 kts | 193° |
| 2026-05-03 22:27 | -30.97847 | -63.96504 | 10019 ft | 289 kts | 193° |
| 2026-05-03 22:27 | -30.99833 | -63.96911 | 10016 ft | 290 kts | 193° |
| 2026-05-03 22:28 | -31.01835 | -63.97324 | 10025 ft | 295 kts | 192° |
| 2026-05-03 22:28 | -31.03856 | -63.97747 | 10021 ft | 295 kts | 193° |
| 2026-05-03 22:28 | -31.05840 | -63.98128 | 10015 ft | 291 kts | 193° |
| 2026-05-03 22:28 | -31.07829 | -63.98502 | 10000 ft | 289 kts | 194° |
| 2026-05-03 22:29 | -31.09795 | -63.98857 | 10010 ft | 287 kts | 193° |
| 2026-05-03 22:29 | -31.11770 | -63.99247 | 10012 ft | 290 kts | 192° |
| 2026-05-03 22:29 | -31.13772 | -63.99654 | 10014 ft | 294 kts | 192° |
| 2026-05-03 22:29 | -31.15740 | -64.00057 | 10016 ft | 294 kts | 193° |
| 2026-05-03 22:30 | -31.17743 | -64.00445 | 10002 ft | 289 kts | 193° |
| 2026-05-03 22:30 | -31.19687 | -64.00839 | 9992 ft | 277 kts | 195° |
| 2026-05-03 22:30 | -31.21552 | -64.01178 | 9987 ft | 265 kts | 193° |
| 2026-05-03 22:30 | -31.23331 | -64.01485 | 9985 ft | 252 kts | 193° |
| 2026-05-03 22:31 | -31.25036 | -64.01773 | 9986 ft | 245 kts | 193° |
| 2026-05-03 22:31 | -31.26723 | -64.02055 | 9993 ft | 245 kts | 193° |
| 2026-05-03 22:31 | -31.28387 | -64.02333 | 10007 ft | 246 kts | 193° |
| 2026-05-03 22:31 | -31.30082 | -64.02617 | 10011 ft | 246 kts | 193° |
| 2026-05-03 22:32 | -31.31772 | -64.02834 | 9990 ft | 247 kts | 181° |
| 2026-05-03 22:32 | -31.33399 | -64.02130 | 10008 ft | 261 kts | 143° |
| 2026-05-03 22:32 | -31.34462 | -64.00407 | 10037 ft | 265 kts | 114° |
| 2026-05-03 22:32 | -31.35165 | -63.98395 | 10013 ft | 267 kts | 113° |
| 2026-05-03 22:33 | -31.35851 | -63.96387 | 10008 ft | 266 kts | 114° |
| 2026-05-03 22:33 | -31.36822 | -63.94597 | 9912 ft | 261 kts | 142° |
| 2026-05-03 22:33 | -31.38341 | -63.93425 | 9629 ft | 262 kts | 153° |
| 2026-05-03 22:33 | -31.39916 | -63.92325 | 9314 ft | 264 kts | 152° |
| 2026-05-03 22:34 | -31.41487 | -63.91265 | 9038 ft | 264 kts | 153° |
| 2026-05-03 22:34 | -31.43115 | -63.90192 | 8727 ft | 266 kts | 154° |
| 2026-05-03 22:34 | -31.44839 | -63.89844 | 8384 ft | 255 kts | 200° |
| 2026-05-03 22:34 | -31.46299 | -63.90860 | 7961 ft | 247 kts | 237° |
| 2026-05-03 22:35 | -31.46826 | -63.92648 | 7703 ft | 230 kts | 277° |
| 2026-05-03 22:35 | -31.46241 | -63.94317 | 7405 ft | 223 kts | 312° |
| 2026-05-03 22:35 | -31.45213 | -63.95647 | 7204 ft | 219 kts | 310° |
| 2026-05-03 22:35 | -31.44616 | -63.97281 | 6957 ft | 223 kts | 283° |
| 2026-05-03 22:36 | -31.44377 | -63.99064 | 6728 ft | 221 kts | 284° |
| 2026-05-03 22:36 | -31.44108 | -64.00841 | 6466 ft | 221 kts | 284° |
| 2026-05-03 22:36 | -31.43840 | -64.02609 | 6249 ft | 219 kts | 285° |
| 2026-05-03 22:36 | -31.43575 | -64.04360 | 6071 ft | 218 kts | 285° |
| 2026-05-03 22:37 | -31.43425 | -64.06144 | 5956 ft | 224 kts | 275° |
| 2026-05-03 22:37 | -31.43443 | -64.07941 | 5902 ft | 214 kts | 274° |
| 2026-05-03 22:37 | -31.43465 | -64.09636 | 5803 ft | 202 kts | 274° |
| 2026-05-03 22:37 | -31.43476 | -64.11260 | 5549 ft | 198 kts | 275° |
| 2026-05-03 22:38 | -31.43480 | -64.12872 | 5225 ft | 198 kts | 275° |
| 2026-05-03 22:38 | -31.43482 | -64.14475 | 5047 ft | 195 kts | 275° |
| 2026-05-03 22:38 | -31.43360 | -64.16040 | 4823 ft | 198 kts | 294° |
| 2026-05-03 22:38 | -31.42433 | -64.17199 | 4368 ft | 198 kts | 333° |
| 2026-05-03 22:39 | -31.41267 | -64.17970 | 4192 ft | 188 kts | 331° |
| 2026-05-03 22:39 | -31.40190 | -64.18725 | 3985 ft | 172 kts | 332° |
| 2026-05-03 22:39 | -31.39199 | -64.19418 | 3664 ft | 165 kts | 333° |
| 2026-05-03 22:39 | -31.38167 | -64.20134 | 2939 ft | 180 kts | 334° |
| 2026-05-03 22:40 | -31.37026 | -64.20700 | 2460 ft | 170 kts | 356° |
| 2026-05-03 22:40 | -31.35914 | -64.20725 | 2267 ft | 154 kts | 0° |
| 2026-05-03 22:40 | -31.34895 | -64.20764 | 2113 ft | 143 kts | 359° |
| 2026-05-03 22:40 | -31.33873 | -64.20785 | 1888 ft | 148 kts | 359° |
| 2026-05-03 22:41 | -31.32859 | -64.20801 | 1710 ft | 146 kts | 359° |
| 2026-05-03 22:41 | -31.31870 | -64.20816 | 1619 ft | 145 kts | 359° |
| 2026-05-03 22:41 | -31.31114 | -64.20834 | 1615 ft | 53 kts | 359° |
| 2026-05-03 22:41 | -31.30819 | -64.20838 | 1618 ft | 40 kts | 359° |
| 2026-05-03 22:42 | -31.30619 | -64.20835 | 1617 ft | 18 kts | 10° |
| 2026-05-03 22:42 | -31.30521 | -64.20820 | 1619 ft | 6 kts | 341° |
| 2026-05-03 22:42 | -31.30522 | -64.20837 | 1613 ft | 4 kts | 217° |
| 2026-05-03 22:42 | -31.30579 | -64.20842 | 1619 ft | 13 kts | 178° |
| 2026-05-03 22:43 | -31.30684 | -64.20838 | 1617 ft | 16 kts | 178° |
| 2026-05-03 22:43 | -31.30813 | -64.20838 | 1616 ft | 22 kts | 179° |
| 2026-05-03 22:43 | -31.30991 | -64.20835 | 1615 ft | 29 kts | 179° |
| 2026-05-03 22:43 | -31.31218 | -64.20832 | 1617 ft | 36 kts | 179° |
| 2026-05-03 22:44 | -31.31438 | -64.20846 | 1621 ft | 21 kts | 214° |
| 2026-05-03 22:44 | -31.31467 | -64.20940 | 1612 ft | 0 kts | 269° |
| 2026-05-03 22:45 | -31.31467 | -64.20948 | 1612 ft | 2 kts | 271° |
| 2026-05-03 22:45 | -31.31466 | -64.20973 | 1612 ft | 4 kts | 271° |
| 2026-05-03 22:45 | -31.31468 | -64.21014 | 1612 ft | 6 kts | 264° |
| 2026-05-03 22:45 | -31.31472 | -64.21065 | 1616 ft | 7 kts | 277° |
| 2026-05-03 22:46 | -31.31443 | -64.21102 | 1614 ft | 6 kts | 338° |
| 2026-05-03 22:46 | -31.31434 | -64.21116 | 1614 ft | 2 kts | 287° |
| 2026-05-03 22:46 | -31.31435 | -64.21137 | 1614 ft | 3 kts | 269° |
| 2026-05-03 22:46 | -31.31435 | -64.21168 | 1612 ft | 3 kts | 268° |
| 2026-05-03 22:47 | -31.31435 | -64.21173 | 1612 ft | 1 kts | 268° |
| 2026-05-03 22:47 | -31.31436 | -64.21182 | 1612 ft | 0 kts | 268° |